Time;durP1;ratioP1;P1;durP2;ratioP2;P2;SDS_P1;SDS_P2;PMS_P1;PMS_P2;Temp;Humidity;BMP_temperature;BMP_pressure;BME280_temperature;BME280_humidity;BME280_pressure;Samples;Min_cycle;Max_cycle;Signal;HPM_P1;HPM_P2
2023/04/27 00:00:17;;;;;;;3.47;2.50;;;;;;;;;;5036537;28;20567;-32
2023/04/27 00:02:45;;;;;;;6.03;2.30;;;;;;;;;;5031305;28;20202;-31
2023/04/27 00:05:13;;;;;;;2.57;2.30;;;;;;;;;;5046437;28;20252;-30
2023/04/27 00:07:40;;;;;;;5.63;2.30;;;;;;;;;;5039989;28;20213;-36
2023/04/27 00:10:08;;;;;;;3.20;1.80;;;;;;;;;;5044757;28;20744;-32
2023/04/27 00:12:35;;;;;;;2.20;2.10;;;;;;;;;;5044968;28;20226;-33
2023/04/27 00:15:03;;;;;;;2.97;2.23;;;;;;;;;;5049403;28;20233;-35
2023/04/27 00:17:30;;;;;;;4.10;2.50;;;;;;;;;;5047050;28;20209;-34
2023/04/27 00:19:57;;;;;;;4.40;2.50;;;;;;;;;;5048864;28;20205;-35
2023/04/27 00:22:25;;;;;;;3.60;2.27;;;;;;;;;;5050637;28;20194;-35
2023/04/27 00:24:53;;;;;;;3.80;2.47;;;;;;;;;;5055351;28;20230;-31
2023/04/27 00:27:20;;;;;;;5.90;2.20;;;;;;;;;;5051680;28;20208;-32
2023/04/27 00:29:47;;;;;;;2.70;2.10;;;;;;;;;;5054955;28;20210;-35
2023/04/27 00:32:15;;;;;;;2.77;2.10;;;;;;;;;;5051963;28;20222;-36
2023/04/27 00:34:42;;;;;;;2.60;2.40;;;;;;;;;;5041840;28;20230;-30
2023/04/27 00:37:09;;;;;;;2.53;2.33;;;;;;;;;;5040120;28;20207;-33
2023/04/27 00:39:38;;;;;;;2.97;2.33;;;;;;;;;;5050220;28;20659;-32
2023/04/27 00:42:10;;;;;;;3.77;2.50;;;;;;;;;;5046485;28;20195;-30
2023/04/27 00:44:37;;;;;;;7.47;3.53;;;;;;;;;;5034340;28;20230;-33
2023/04/27 00:47:04;;;;;;;2.13;1.93;;;;;;;;;;5033620;28;20210;-32
2023/04/27 00:49:32;;;;;;;2.60;2.40;;;;;;;;;;5044697;28;20674;-31
2023/04/27 00:51:59;;;;;;;2.53;2.33;;;;;;;;;;5050662;28;20228;-33
2023/04/27 00:54:26;;;;;;;4.47;3.07;;;;;;;;;;5054869;28;20237;-31
2023/04/27 00:56:55;;;;;;;3.63;2.40;;;;;;;;;;5045986;28;20210;-31
2023/04/27 00:59:22;;;;;;;3.97;2.90;;;;;;;;;;5045394;28;20631;-31
2023/04/27 01:01:49;;;;;;;5.30;2.77;;;;;;;;;;5051735;28;20209;-35
2023/04/27 01:04:17;;;;;;;4.30;2.43;;;;;;;;;;5045165;28;20222;-29
2023/04/27 01:06:44;;;;;;;4.10;2.30;;;;;;;;;;5050813;28;20206;-32
2023/04/27 01:09:12;;;;;;;4.00;2.53;;;;;;;;;;5052618;28;20644;-34
2023/04/27 01:11:39;;;;;;;2.33;2.13;;;;;;;;;;5046790;28;20679;-33
2023/04/27 01:14:08;;;;;;;4.50;3.30;;;;;;;;;;5048962;28;20249;-32
2023/04/27 01:16:36;;;;;;;4.00;2.60;;;;;;;;;;5050826;28;20213;-32
2023/04/27 01:19:03;;;;;;;3.53;2.63;;;;;;;;;;5042322;28;20279;-32
2023/04/27 01:21:30;;;;;;;3.83;2.63;;;;;;;;;;5053299;28;20194;-36
2023/04/27 01:23:59;;;;;;;4.90;2.50;;;;;;;;;;5038184;28;20226;-34
2023/04/27 01:26:26;;;;;;;3.27;2.60;;;;;;;;;;5045349;28;20235;-35
2023/04/27 01:28:53;;;;;;;2.93;2.67;;;;;;;;;;5041637;28;20544;-31
2023/04/27 01:31:20;;;;;;;11.40;3.10;;;;;;;;;;5048856;28;20226;-30
2023/04/27 01:33:47;;;;;;;3.47;2.80;;;;;;;;;;5044359;28;20226;-33
2023/04/27 01:36:14;;;;;;;2.90;2.67;;;;;;;;;;5046892;28;20206;-33
2023/04/27 01:38:41;;;;;;;3.17;2.50;;;;;;;;;;5047193;28;20206;-32
2023/04/27 01:41:10;;;;;;;4.53;2.70;;;;;;;;;;5048628;28;20206;-32
2023/04/27 01:43:37;;;;;;;3.90;2.83;;;;;;;;;;5035963;28;20226;-31
2023/04/27 01:46:07;;;;;;;4.93;3.10;;;;;;;;;;5048405;28;20214;-29
2023/04/27 01:48:34;;;;;;;4.63;3.30;;;;;;;;;;5044673;28;20656;-32
2023/04/27 01:51:02;;;;;;;6.40;2.93;;;;;;;;;;5044945;28;20202;-30
2023/04/27 01:53:29;;;;;;;5.13;3.13;;;;;;;;;;5036057;28;20668;-36
2023/04/27 01:55:58;;;;;;;4.20;2.97;;;;;;;;;;5033329;28;20210;-30
2023/04/27 01:58:27;;;;;;;3.13;2.80;;;;;;;;;;5036257;28;20210;-32
2023/04/27 02:00:54;;;;;;;2.93;2.53;;;;;;;;;;5048883;28;20269;-31
2023/04/27 02:03:21;;;;;;;4.37;2.83;;;;;;;;;;5033698;28;20312;-43
2023/04/27 02:05:48;;;;;;;5.67;2.40;;;;;;;;;;5040548;28;20206;-31
2023/04/27 02:08:15;;;;;;;4.73;2.50;;;;;;;;;;5030087;28;20213;-32
2023/04/27 02:10:42;;;;;;;4.93;3.20;;;;;;;;;;5030784;28;20229;-31
2023/04/27 02:13:10;;;;;;;4.30;2.97;;;;;;;;;;5036490;28;20241;-33
2023/04/27 02:15:38;;;;;;;2.53;2.33;;;;;;;;;;5051079;28;20267;-32
2023/04/27 02:18:07;;;;;;;2.40;2.23;;;;;;;;;;5042688;28;20419;-33
2023/04/27 02:20:35;;;;;;;3.03;2.50;;;;;;;;;;5052405;28;20204;-36
2023/04/27 02:23:02;;;;;;;3.73;2.50;;;;;;;;;;5052346;28;20657;-33
2023/04/27 02:25:30;;;;;;;2.50;2.30;;;;;;;;;;5053053;28;20210;-31
2023/04/27 02:27:57;;;;;;;2.43;2.23;;;;;;;;;;5044184;28;20271;-33
2023/04/27 02:30:24;;;;;;;3.40;2.30;;;;;;;;;;5044697;28;20206;-32
2023/04/27 02:32:52;;;;;;;4.83;2.70;;;;;;;;;;5034836;28;20268;-34
2023/04/27 02:35:19;;;;;;;3.23;2.47;;;;;;;;;;5038741;28;20278;-30
2023/04/27 02:37:47;;;;;;;5.60;2.90;;;;;;;;;;5032240;28;20652;-35
2023/04/27 02:40:14;;;;;;;3.43;2.30;;;;;;;;;;5032927;28;20206;-34
2023/04/27 02:42:41;;;;;;;2.83;2.23;;;;;;;;;;5031345;28;20228;-32
2023/04/27 02:45:08;;;;;;;2.70;2.50;;;;;;;;;;5046892;28;20220;-35
2023/04/27 02:47:36;;;;;;;4.37;2.70;;;;;;;;;;5038134;28;20206;-31
2023/04/27 02:50:04;;;;;;;2.87;2.67;;;;;;;;;;5043339;28;20198;-33
2023/04/27 02:55:01;;;;;;;2.33;2.13;;;;;;;;;;5048751;28;20329;-42
2023/04/27 02:57:28;;;;;;;2.90;2.50;;;;;;;;;;5050960;28;20206;-39
2023/04/27 02:59:55;;;;;;;2.97;2.50;;;;;;;;;;5052566;28;20216;-34
2023/04/27 03:02:23;;;;;;;2.83;2.30;;;;;;;;;;5045779;28;20286;-38
2023/04/27 03:04:53;;;;;;;2.60;2.20;;;;;;;;;;5052436;28;20230;-36
2023/04/27 03:07:22;;;;;;;2.37;2.17;;;;;;;;;;5053048;28;20198;-35
2023/04/27 03:09:49;;;;;;;3.03;2.60;;;;;;;;;;5052877;28;20209;-38
2023/04/27 03:12:16;;;;;;;3.17;2.60;;;;;;;;;;5051154;28;20229;-39
2023/04/27 03:14:44;;;;;;;2.60;2.40;;;;;;;;;;5049551;28;20226;-41
2023/04/27 03:17:11;;;;;;;6.73;2.40;;;;;;;;;;5044882;28;20203;-36
2023/04/27 03:19:38;;;;;;;2.60;2.40;;;;;;;;;;5043878;28;20230;-33
2023/04/27 03:22:05;;;;;;;5.13;2.80;;;;;;;;;;5049807;28;20198;-36
2023/04/27 03:24:34;;;;;;;4.47;3.03;;;;;;;;;;5047136;28;20222;-33
2023/04/27 03:27:01;;;;;;;3.27;2.53;;;;;;;;;;5041713;28;20202;-35
2023/04/27 03:29:28;;;;;;;2.73;2.47;;;;;;;;;;5050505;28;20205;-35
2023/04/27 03:31:56;;;;;;;2.83;2.30;;;;;;;;;;5046991;28;20203;-31
2023/04/27 03:34:23;;;;;;;4.37;2.63;;;;;;;;;;5040696;28;20283;-38
2023/04/27 03:36:50;;;;;;;4.80;3.10;;;;;;;;;;5049027;28;20204;-32
2023/04/27 03:39:17;;;;;;;5.23;2.60;;;;;;;;;;5047332;28;20202;-32
2023/04/27 03:41:46;;;;;;;2.57;2.37;;;;;;;;;;5043431;28;20205;-35
2023/04/27 03:44:13;;;;;;;2.67;2.47;;;;;;;;;;5041485;28;20218;-33
2023/04/27 03:46:40;;;;;;;2.97;2.23;;;;;;;;;;5049769;28;20201;-32
2023/04/27 03:49:07;;;;;;;2.43;2.23;;;;;;;;;;5054280;28;20213;-30
2023/04/27 03:51:34;;;;;;;2.70;2.50;;;;;;;;;;5055974;28;20194;-35
2023/04/27 03:54:01;;;;;;;2.50;2.30;;;;;;;;;;5056263;28;20230;-39
2023/04/27 03:56:29;;;;;;;2.60;2.40;;;;;;;;;;5051709;28;20206;-36
2023/04/27 03:58:57;;;;;;;3.60;2.80;;;;;;;;;;5055313;28;20213;-29
2023/04/27 04:01:24;;;;;;;3.73;2.60;;;;;;;;;;5054946;28;20204;-32
2023/04/27 04:03:51;;;;;;;2.80;2.53;;;;;;;;;;5038923;28;20296;-38
2023/04/27 04:06:18;;;;;;;3.63;2.30;;;;;;;;;;5045217;28;23308;-39
2023/04/27 04:08:46;;;;;;;2.97;2.60;;;;;;;;;;5046065;28;20198;-38
2023/04/27 04:11:13;;;;;;;4.30;2.20;;;;;;;;;;5051499;28;20203;-33
2023/04/27 04:13:41;;;;;;;4.13;2.60;;;;;;;;;;5052376;28;20225;-31
2023/04/27 04:16:10;;;;;;;2.80;2.60;;;;;;;;;;5047104;28;20286;-32
2023/04/27 04:18:37;;;;;;;3.40;2.50;;;;;;;;;;5040883;28;20210;-36
2023/04/27 04:21:04;;;;;;;3.40;3.10;;;;;;;;;;5050030;28;20216;-36
2023/04/27 04:23:32;;;;;;;2.67;2.47;;;;;;;;;;5052142;28;20228;-35
2023/04/27 04:26:00;;;;;;;3.57;2.87;;;;;;;;;;5052960;28;20263;-37
2023/04/27 04:28:28;;;;;;;3.37;2.70;;;;;;;;;;5042104;28;20288;-41
2023/04/27 04:30:55;;;;;;;3.03;2.63;;;;;;;;;;5053077;28;20206;-33
2023/04/27 04:33:25;;;;;;;3.27;2.50;;;;;;;;;;5047097;28;20233;-37
2023/04/27 04:35:52;;;;;;;2.53;2.33;;;;;;;;;;5053831;28;20225;-30
2023/04/27 04:38:19;;;;;;;3.10;2.80;;;;;;;;;;5053953;28;20202;-34
2023/04/27 04:40:47;;;;;;;4.13;3.23;;;;;;;;;;5055300;28;20210;-34
2023/04/27 04:43:14;;;;;;;3.07;2.67;;;;;;;;;;5048756;28;20214;-34
2023/04/27 04:45:42;;;;;;;3.03;2.70;;;;;;;;;;5054589;28;20290;-34
2023/04/27 04:48:10;;;;;;;4.77;2.83;;;;;;;;;;5042147;28;20206;-29
2023/04/27 04:50:40;;;;;;;3.07;2.70;;;;;;;;;;5044473;28;20216;-34
2023/04/27 04:53:07;;;;;;;5.17;2.50;;;;;;;;;;5052937;28;20229;-37
2023/04/27 04:55:35;;;;;;;4.73;2.80;;;;;;;;;;5049152;28;20202;-35
2023/04/27 04:58:02;;;;;;;3.40;2.90;;;;;;;;;;5050963;28;20213;-35
2023/04/27 05:00:29;;;;;;;3.03;2.43;;;;;;;;;;5054233;28;20208;-32
2023/04/27 05:02:57;;;;;;;5.60;2.83;;;;;;;;;;5045356;28;20276;-31
2023/04/27 05:05:24;;;;;;;4.87;2.93;;;;;;;;;;5043424;28;20681;-36
2023/04/27 05:07:53;;;;;;;3.33;3.03;;;;;;;;;;5053265;28;20233;-37
2023/04/27 05:10:21;;;;;;;5.60;3.07;;;;;;;;;;5050474;28;20226;-35
2023/04/27 05:12:48;;;;;;;4.13;2.53;;;;;;;;;;5041105;28;20222;-35
2023/04/27 05:15:15;;;;;;;7.60;2.80;;;;;;;;;;5053994;28;20194;-33
2023/04/27 05:17:42;;;;;;;2.83;2.63;;;;;;;;;;5046505;28;20225;-40
2023/04/27 05:20:10;;;;;;;2.70;2.47;;;;;;;;;;5047889;28;20202;-37
2023/04/27 05:22:37;;;;;;;3.50;2.90;;;;;;;;;;5049046;28;20212;-35
2023/04/27 05:25:07;;;;;;;4.73;3.10;;;;;;;;;;5047716;28;20229;-33
2023/04/27 05:27:34;;;;;;;3.10;2.77;;;;;;;;;;5053985;28;20233;-39
2023/04/27 05:30:02;;;;;;;4.33;2.83;;;;;;;;;;5046619;28;20202;-34
2023/04/27 05:32:29;;;;;;;2.67;2.47;;;;;;;;;;5050181;28;20294;-38
2023/04/27 05:34:56;;;;;;;3.60;2.90;;;;;;;;;;5043489;28;20299;-38
2023/04/27 05:37:23;;;;;;;3.90;2.77;;;;;;;;;;5053601;28;20194;-32
2023/04/27 05:39:51;;;;;;;2.97;2.67;;;;;;;;;;5053866;28;20202;-37
2023/04/27 05:42:19;;;;;;;3.10;2.83;;;;;;;;;;5050215;28;20244;-37
2023/04/27 05:44:46;;;;;;;5.57;2.57;;;;;;;;;;5046120;28;20229;-37
2023/04/27 05:47:13;;;;;;;3.20;2.70;;;;;;;;;;5045934;28;20221;-34
2023/04/27 05:49:41;;;;;;;4.83;3.03;;;;;;;;;;5047980;28;20210;-34
2023/04/27 05:52:08;;;;;;;5.17;3.10;;;;;;;;;;5052781;28;20194;-37
2023/04/27 05:54:35;;;;;;;3.87;3.20;;;;;;;;;;5036005;28;20228;-38
2023/04/27 05:57:02;;;;;;;8.47;3.37;;;;;;;;;;5041811;28;20213;-30
2023/04/27 05:59:31;;;;;;;5.83;2.83;;;;;;;;;;5052510;28;20205;-38
2023/04/27 06:01:58;;;;;;;3.53;3.07;;;;;;;;;;5049425;28;20210;-41
2023/04/27 06:04:25;;;;;;;4.43;2.93;;;;;;;;;;5048886;28;20230;-34
2023/04/27 06:06:52;;;;;;;6.20;3.03;;;;;;;;;;5054602;28;20202;-32
2023/04/27 06:09:19;;;;;;;4.43;3.27;;;;;;;;;;5054669;28;20206;-34
2023/04/27 06:11:46;;;;;;;4.50;3.30;;;;;;;;;;5051245;28;20234;-31
2023/04/27 06:14:14;;;;;;;3.20;2.50;;;;;;;;;;5054049;28;20300;-33
2023/04/27 06:17:04;;;;;;;4.67;3.67;;;;;;;;;;5050963;28;20208;-32
2023/04/27 06:19:33;;;;;;;3.13;2.83;;;;;;;;;;5048037;28;20209;-35
2023/04/27 06:22:00;;;;;;;6.80;3.20;;;;;;;;;;5053357;28;20202;-37
2023/04/27 06:24:27;;;;;;;4.30;3.23;;;;;;;;;;5053426;28;20232;-34
2023/04/27 06:26:54;;;;;;;7.13;3.50;;;;;;;;;;5047218;28;20202;-35
2023/04/27 06:29:21;;;;;;;6.43;3.23;;;;;;;;;;5049702;28;20212;-37
2023/04/27 06:31:49;;;;;;;5.20;3.20;;;;;;;;;;5049920;28;20297;-40
2023/04/27 06:34:16;;;;;;;4.60;3.40;;;;;;;;;;5049575;28;20279;-32
2023/04/27 06:36:44;;;;;;;4.03;3.23;;;;;;;;;;5051893;28;20296;-34
2023/04/27 06:39:11;;;;;;;6.47;3.53;;;;;;;;;;5052334;28;20232;-38
2023/04/27 06:41:39;;;;;;;4.73;3.80;;;;;;;;;;5045650;28;20285;-33
2023/04/27 06:44:06;;;;;;;8.20;3.43;;;;;;;;;;5052541;28;20216;-33
2023/04/27 06:46:33;;;;;;;7.33;3.50;;;;;;;;;;5052968;28;20217;-29
2023/04/27 06:49:00;;;;;;;5.37;3.40;;;;;;;;;;5037221;28;20210;-37
2023/04/27 06:51:27;;;;;;;3.63;3.33;;;;;;;;;;5040691;28;20203;-30
2023/04/27 06:53:56;;;;;;;10.87;3.10;;;;;;;;;;5045127;28;20230;-31
2023/04/27 06:56:24;;;;;;;8.17;3.57;;;;;;;;;;5041345;28;20206;-33
2023/04/27 06:58:51;;;;;;;5.37;3.67;;;;;;;;;;5048944;28;20667;-37
2023/04/27 07:01:18;;;;;;;5.40;3.43;;;;;;;;;;5049987;28;20213;-37
2023/04/27 07:03:45;;;;;;;11.23;3.53;;;;;;;;;;5041158;28;20237;-34
2023/04/27 07:06:12;;;;;;;6.13;3.50;;;;;;;;;;5050086;28;20194;-33
2023/04/27 07:08:39;;;;;;;5.57;3.53;;;;;;;;;;5051782;28;20284;-34
2023/04/27 07:11:08;;;;;;;3.63;3.27;;;;;;;;;;5041997;28;20212;-36
2023/04/27 07:13:35;;;;;;;3.30;3.10;;;;;;;;;;5050160;28;20230;-33
2023/04/27 07:16:02;;;;;;;6.20;3.10;;;;;;;;;;5055758;28;20259;-38
2023/04/27 07:18:29;;;;;;;6.80;3.30;;;;;;;;;;5042042;28;20210;-39
2023/04/27 07:20:57;;;;;;;6.00;3.47;;;;;;;;;;5049665;28;20206;-35
2023/04/27 07:23:24;;;;;;;7.13;3.07;;;;;;;;;;5055295;28;20230;-36
2023/04/27 07:25:52;;;;;;;3.67;3.17;;;;;;;;;;5045492;28;20209;-37
2023/04/27 07:28:20;;;;;;;5.77;3.70;;;;;;;;;;5055408;28;20275;-36
2023/04/27 07:30:48;;;;;;;7.70;3.10;;;;;;;;;;5055756;28;20198;-33
2023/04/27 07:33:15;;;;;;;5.33;3.10;;;;;;;;;;5042223;28;20234;-33
2023/04/27 07:35:42;;;;;;;4.50;3.13;;;;;;;;;;5048051;28;20217;-37
2023/04/27 07:38:09;;;;;;;4.70;3.37;;;;;;;;;;5045853;28;20215;-36
2023/04/27 07:40:36;;;;;;;4.93;3.57;;;;;;;;;;5036049;28;20206;-35
2023/04/27 07:43:04;;;;;;;5.40;3.60;;;;;;;;;;5045978;28;20237;-37
2023/04/27 07:45:32;;;;;;;6.63;3.23;;;;;;;;;;5054698;28;20285;-35
2023/04/27 07:48:00;;;;;;;7.90;3.80;;;;;;;;;;5045912;28;20203;-38
2023/04/27 07:50:28;;;;;;;4.60;3.00;;;;;;;;;;5049306;28;20199;-34
2023/04/27 07:52:55;;;;;;;5.13;3.17;;;;;;;;;;5055429;28;20290;-36
2023/04/27 07:55:23;;;;;;;4.90;3.50;;;;;;;;;;5063745;28;20286;-36
2023/04/27 07:57:50;;;;;;;3.60;3.27;;;;;;;;;;5055255;28;20228;-36
2023/04/27 08:00:17;;;;;;;5.00;3.00;;;;;;;;;;5055433;28;20194;-34
2023/04/27 08:02:46;;;;;;;4.07;3.57;;;;;;;;;;5051982;28;20205;-36
2023/04/27 08:05:13;;;;;;;6.93;3.27;;;;;;;;;;5050504;28;20216;-33
2023/04/27 08:07:41;;;;;;;4.90;3.20;;;;;;;;;;5055156;28;20202;-37
2023/04/27 08:10:08;;;;;;;4.13;3.10;;;;;;;;;;5055082;28;20212;-38
2023/04/27 08:12:36;;;;;;;4.30;3.27;;;;;;;;;;5045613;28;20214;-30
2023/04/27 08:15:03;;;;;;;5.93;3.57;;;;;;;;;;5046528;28;20232;-36
2023/04/27 08:17:30;;;;;;;3.60;2.90;;;;;;;;;;5047809;28;20202;-35
2023/04/27 08:19:58;;;;;;;4.27;2.97;;;;;;;;;;5049408;28;20213;-33
2023/04/27 08:22:25;;;;;;;6.57;3.60;;;;;;;;;;5049978;28;20217;-39
2023/04/27 08:24:52;;;;;;;4.37;3.47;;;;;;;;;;5052612;28;20218;-41
2023/04/27 08:27:20;;;;;;;4.03;3.13;;;;;;;;;;5044327;28;20202;-39
2023/04/27 08:29:49;;;;;;;5.10;2.83;;;;;;;;;;5047035;28;20237;-39
2023/04/27 08:32:16;;;;;;;4.10;3.03;;;;;;;;;;5047095;28;20199;-32
2023/04/27 08:34:45;;;;;;;4.83;2.90;;;;;;;;;;5048749;28;20330;-34
2023/04/27 08:37:13;;;;;;;3.87;2.97;;;;;;;;;;5054547;28;20194;-33
2023/04/27 08:39:42;;;;;;;4.03;2.60;;;;;;;;;;5054912;28;20205;-38
2023/04/27 08:42:12;;;;;;;4.27;2.70;;;;;;;;;;5048840;28;20210;-39
2023/04/27 08:44:39;;;;;;;4.17;2.90;;;;;;;;;;5052582;28;20222;-36
2023/04/27 08:47:07;;;;;;;3.50;2.60;;;;;;;;;;5048161;28;20203;-41
2023/04/27 08:49:36;;;;;;;4.53;2.80;;;;;;;;;;5043777;28;20252;-37
2023/04/27 08:52:04;;;;;;;5.93;2.80;;;;;;;;;;5054341;28;20198;-38
2023/04/27 08:54:32;;;;;;;4.70;2.70;;;;;;;;;;5050403;28;20250;-36
2023/04/27 08:59:38;;;;;;;4.27;2.63;;;;;;;;;;5037214;28;20302;-39
2023/04/27 09:02:10;;;;;;;3.47;2.57;;;;;;;;;;5037575;28;20201;-39
2023/04/27 09:04:39;;;;;;;3.57;2.40;;;;;;;;;;5038038;28;20223;-41
2023/04/27 09:07:14;;;;;;;3.40;2.50;;;;;;;;;;5047639;28;20210;-35
2023/04/27 09:09:47;;;;;;;9.20;2.20;;;;;;;;;;5034994;28;20201;-34
2023/04/27 09:12:19;;;;;;;5.40;2.70;;;;;;;;;;5041213;28;20213;-35
2023/04/27 09:15:05;;;;;;;3.33;2.50;;;;;;;;;;5040897;28;20230;-42
2023/04/27 09:17:39;;;;;;;3.67;2.33;;;;;;;;;;5047647;28;20214;-38
2023/04/27 09:20:17;;;;;;;3.47;2.60;;;;;;;;;;5040187;28;20230;-39
2023/04/27 09:22:50;;;;;;;5.00;2.40;;;;;;;;;;5042053;28;20230;-34
2023/04/27 09:25:34;;;;;;;2.67;2.47;;;;;;;;;;5035158;28;20190;-39
2023/04/27 09:28:03;;;;;;;2.20;1.90;;;;;;;;;;5040961;28;20198;-31
2023/04/27 09:30:39;;;;;;;4.23;3.00;;;;;;;;;;5052150;28;20206;-39
2023/04/27 09:33:07;;;;;;;4.47;2.30;;;;;;;;;;5045258;28;20225;-35
2023/04/27 09:35:41;;;;;;;2.77;2.40;;;;;;;;;;5044850;28;20229;-36
2023/04/27 09:38:09;;;;;;;5.43;2.80;;;;;;;;;;5036925;28;20203;-37
2023/04/27 09:40:40;;;;;;;3.63;2.27;;;;;;;;;;5039259;28;20210;-37
2023/04/27 09:43:08;;;;;;;3.07;2.40;;;;;;;;;;5043859;28;20225;-32
2023/04/27 09:45:38;;;;;;;4.20;2.83;;;;;;;;;;5044462;28;20214;-39
2023/04/27 09:48:07;;;;;;;4.80;2.27;;;;;;;;;;5041960;28;20244;-34
2023/04/27 09:50:36;;;;;;;3.77;2.40;;;;;;;;;;5041234;28;20207;-37
2023/04/27 09:53:04;;;;;;;4.70;2.00;;;;;;;;;;5042001;28;20218;-33
2023/04/27 09:55:35;;;;;;;4.87;2.10;;;;;;;;;;5044180;28;20231;-39
2023/04/27 09:58:10;;;;;;;2.90;2.17;;;;;;;;;;5041419;28;20258;-37
2023/04/27 10:00:47;;;;;;;4.40;2.37;;;;;;;;;;5039875;28;20243;-35
2023/04/27 10:03:22;;;;;;;4.70;2.47;;;;;;;;;;5044264;28;20222;-40
2023/04/27 10:06:05;;;;;;;2.70;2.07;;;;;;;;;;5043045;28;20220;-35
2023/04/27 10:08:37;;;;;;;2.10;1.90;;;;;;;;;;5049904;28;20307;-38
2023/04/27 10:11:14;;;;;;;5.13;1.93;;;;;;;;;;5039287;28;20205;-37
2023/04/27 10:13:53;;;;;;;3.67;1.87;;;;;;;;;;5050965;28;20301;-33
2023/04/27 10:16:20;;;;;;;3.40;2.30;;;;;;;;;;5048608;28;20236;-30
2023/04/27 10:18:53;;;;;;;3.17;2.13;;;;;;;;;;5038598;28;20211;-37
2023/04/27 10:21:21;;;;;;;2.67;1.93;;;;;;;;;;5043273;28;20209;-36
2023/04/27 10:23:49;;;;;;;2.03;1.50;;;;;;;;;;5042848;28;20248;-33
2023/04/27 10:26:23;;;;;;;1.97;1.80;;;;;;;;;;5043286;28;20201;-37
2023/04/27 10:28:58;;;;;;;2.43;1.70;;;;;;;;;;5047970;28;20210;-36
2023/04/27 10:31:28;;;;;;;4.83;2.03;;;;;;;;;;5039009;28;20203;-42
2023/04/27 10:34:06;;;;;;;4.30;1.87;;;;;;;;;;5041110;28;20221;-31
2023/04/27 10:36:38;;;;;;;4.50;2.23;;;;;;;;;;5037665;28;20215;-39
2023/04/27 10:39:14;;;;;;;4.33;2.13;;;;;;;;;;5040477;28;20204;-34
2023/04/27 10:41:50;;;;;;;4.53;2.73;;;;;;;;;;5034504;28;20197;-33
2023/04/27 10:44:20;;;;;;;2.87;2.00;;;;;;;;;;5044694;28;20315;-32
2023/04/27 10:46:51;;;;;;;3.97;2.83;;;;;;;;;;5041885;28;20220;-33
2023/04/27 10:49:18;;;;;;;3.60;2.30;;;;;;;;;;5038856;28;20218;-39
2023/04/27 10:51:45;;;;;;;2.63;2.43;;;;;;;;;;5040609;28;20262;-36
2023/04/27 10:54:13;;;;;;;6.03;2.30;;;;;;;;;;5048035;28;20221;-37
2023/04/27 10:56:41;;;;;;;3.53;2.60;;;;;;;;;;5043873;28;20216;-35
2023/04/27 10:59:08;;;;;;;3.83;2.50;;;;;;;;;;5032195;28;20564;-34
2023/04/27 11:01:37;;;;;;;3.13;2.27;;;;;;;;;;5048623;28;20292;-38
2023/04/27 11:04:05;;;;;;;3.47;2.57;;;;;;;;;;5039890;28;20276;-41
2023/04/27 11:06:33;;;;;;;3.50;2.47;;;;;;;;;;5040183;28;20206;-38
2023/04/27 11:09:00;;;;;;;2.43;2.20;;;;;;;;;;5046096;28;20210;-41
2023/04/27 11:11:27;;;;;;;4.03;2.27;;;;;;;;;;5033278;28;20207;-40
2023/04/27 11:13:56;;;;;;;3.23;2.50;;;;;;;;;;5037710;28;20228;-37
2023/04/27 11:16:25;;;;;;;5.80;2.50;;;;;;;;;;5044543;28;20218;-35
2023/04/27 11:18:55;;;;;;;3.83;2.43;;;;;;;;;;5037796;28;20198;-35
2023/04/27 11:21:22;;;;;;;3.17;2.70;;;;;;;;;;5042562;28;20202;-41
2023/04/27 11:23:50;;;;;;;5.00;2.53;;;;;;;;;;5035865;28;20279;-36
2023/04/27 11:26:17;;;;;;;5.77;2.53;;;;;;;;;;5044835;28;20210;-40
2023/04/27 11:28:45;;;;;;;2.83;2.40;;;;;;;;;;5034103;28;20221;-35
2023/04/27 11:31:13;;;;;;;3.87;2.40;;;;;;;;;;5038380;28;20202;-36
2023/04/27 11:33:40;;;;;;;3.67;2.60;;;;;;;;;;5037597;28;20226;-33
2023/04/27 11:36:18;;;;;;;4.80;2.40;;;;;;;;;;5042249;28;20232;-36
2023/04/27 11:38:45;;;;;;;4.90;2.40;;;;;;;;;;5039844;28;20592;-38
2023/04/27 11:41:12;;;;;;;3.67;2.40;;;;;;;;;;5039148;28;20214;-37
2023/04/27 11:43:41;;;;;;;5.77;2.67;;;;;;;;;;5045174;28;20353;-38
2023/04/27 11:46:11;;;;;;;4.07;2.50;;;;;;;;;;5036853;28;20195;-35
2023/04/27 11:48:38;;;;;;;4.80;2.00;;;;;;;;;;5042054;28;20209;-37
2023/04/27 11:51:06;;;;;;;3.63;2.50;;;;;;;;;;5030541;28;20206;-36
2023/04/27 11:53:35;;;;;;;4.87;2.47;;;;;;;;;;5046901;28;20255;-36
2023/04/27 11:56:04;;;;;;;4.40;2.77;;;;;;;;;;5050135;28;20257;-39
2023/04/27 11:58:31;;;;;;;6.60;2.83;;;;;;;;;;5040223;28;20214;-36
2023/04/27 12:00:58;;;;;;;4.33;2.37;;;;;;;;;;5038130;28;20195;-43
2023/04/27 12:03:26;;;;;;;3.70;3.07;;;;;;;;;;5043419;28;20230;-35
2023/04/27 12:05:53;;;;;;;2.63;2.43;;;;;;;;;;5044970;28;20198;-34
2023/04/27 12:08:21;;;;;;;3.60;2.70;;;;;;;;;;5054364;28;20555;-34
2023/04/27 12:10:49;;;;;;;4.20;2.53;;;;;;;;;;5053869;28;20239;-43
2023/04/27 12:13:17;;;;;;;5.40;2.20;;;;;;;;;;5036729;28;20257;-33
2023/04/27 12:15:44;;;;;;;3.63;2.53;;;;;;;;;;5043506;28;20219;-34
2023/04/27 12:18:11;;;;;;;4.30;2.30;;;;;;;;;;5040996;28;20211;-38
2023/04/27 12:20:39;;;;;;;3.30;2.50;;;;;;;;;;5033870;28;20211;-31
2023/04/27 12:23:06;;;;;;;2.63;2.43;;;;;;;;;;5040089;28;20276;-39
2023/04/27 12:25:33;;;;;;;4.43;2.17;;;;;;;;;;5033532;28;20205;-43
2023/04/27 12:28:01;;;;;;;4.67;2.13;;;;;;;;;;5042721;28;20230;-38
2023/04/27 12:30:29;;;;;;;3.03;2.40;;;;;;;;;;5049028;28;20201;-37
2023/04/27 12:32:58;;;;;;;3.13;2.10;;;;;;;;;;5035704;28;20234;-37
2023/04/27 12:35:25;;;;;;;5.20;2.80;;;;;;;;;;5049917;28;20230;-38
2023/04/27 12:37:53;;;;;;;2.40;2.20;;;;;;;;;;5043554;28;20206;-37
2023/04/27 12:40:22;;;;;;;3.83;2.80;;;;;;;;;;5035132;28;20199;-40
2023/04/27 12:42:49;;;;;;;2.90;2.43;;;;;;;;;;5034515;28;20202;-40
2023/04/27 12:45:17;;;;;;;2.20;2.10;;;;;;;;;;5037525;28;20209;-39
2023/04/27 12:47:45;;;;;;;4.57;2.43;;;;;;;;;;5043886;28;20238;-34
2023/04/27 12:50:12;;;;;;;3.33;2.53;;;;;;;;;;5046206;28;20293;-35
2023/04/27 12:52:39;;;;;;;4.07;2.43;;;;;;;;;;5054265;28;20232;-35
2023/04/27 12:55:08;;;;;;;4.20;2.50;;;;;;;;;;5054280;28;20236;-33
2023/04/27 12:57:35;;;;;;;4.10;3.17;;;;;;;;;;5048159;28;20213;-40
2023/04/27 13:00:04;;;;;;;4.30;2.77;;;;;;;;;;5042525;28;20213;-38
2023/04/27 13:02:33;;;;;;;2.80;2.50;;;;;;;;;;5042940;28;20217;-40
2023/04/27 13:05:00;;;;;;;6.27;2.90;;;;;;;;;;5051577;28;20232;-39
2023/04/27 13:07:28;;;;;;;3.13;2.67;;;;;;;;;;5045851;28;20202;-33
2023/04/27 13:09:56;;;;;;;4.30;3.00;;;;;;;;;;5034087;28;20222;-35
2023/04/27 13:12:25;;;;;;;4.07;2.43;;;;;;;;;;5046952;28;20202;-34
2023/04/27 13:14:52;;;;;;;7.07;2.20;;;;;;;;;;5034514;28;20223;-35
2023/04/27 13:17:19;;;;;;;2.67;2.37;;;;;;;;;;5034097;28;20293;-34
2023/04/27 13:19:48;;;;;;;2.63;2.10;;;;;;;;;;5043766;28;20210;-41
2023/04/27 13:22:15;;;;;;;4.77;2.53;;;;;;;;;;5040476;28;20269;-39
2023/04/27 13:24:42;;;;;;;5.77;2.57;;;;;;;;;;5053941;28;20308;-39
2023/04/27 13:27:10;;;;;;;2.90;2.70;;;;;;;;;;5042169;28;20657;-35
2023/04/27 13:29:37;;;;;;;2.63;2.37;;;;;;;;;;5039271;28;20215;-32
2023/04/27 13:32:04;;;;;;;4.90;2.37;;;;;;;;;;5032343;28;20269;-41
2023/04/27 13:34:32;;;;;;;2.40;2.20;;;;;;;;;;5042165;28;20225;-34
2023/04/27 13:37:00;;;;;;;3.57;2.13;;;;;;;;;;5049459;28;20313;-33
2023/04/27 13:39:28;;;;;;;3.17;2.37;;;;;;;;;;5034003;28;20706;-42
2023/04/27 13:41:56;;;;;;;3.00;2.30;;;;;;;;;;5036894;28;20300;-35
2023/04/27 13:44:23;;;;;;;3.20;2.00;;;;;;;;;;5041387;28;20287;-37
2023/04/27 13:46:50;;;;;;;2.57;2.20;;;;;;;;;;5050205;28;20201;-38
2023/04/27 13:49:18;;;;;;;3.13;2.00;;;;;;;;;;5046976;28;20202;-40
2023/04/27 13:51:45;;;;;;;3.00;2.27;;;;;;;;;;5052750;28;20210;-38
2023/04/27 13:54:15;;;;;;;4.00;2.30;;;;;;;;;;5042038;28;20226;-38
2023/04/27 13:56:44;;;;;;;3.20;2.30;;;;;;;;;;5043124;28;20253;-37
2023/04/27 13:59:11;;;;;;;5.67;2.60;;;;;;;;;;5053015;28;20241;-38
2023/04/27 14:01:38;;;;;;;4.93;2.47;;;;;;;;;;5044586;28;20202;-42
2023/04/27 14:04:06;;;;;;;6.03;2.50;;;;;;;;;;5041649;28;20230;-41
2023/04/27 14:06:36;;;;;;;3.77;2.20;;;;;;;;;;5049740;28;20198;-40
2023/04/27 14:09:04;;;;;;;3.77;2.17;;;;;;;;;;5052650;28;20217;-32
2023/04/27 14:11:33;;;;;;;2.80;1.90;;;;;;;;;;5051145;28;20206;-38
2023/04/27 14:14:05;;;;;;;2.10;1.90;;;;;;;;;;5034765;28;20237;-35
2023/04/27 14:16:36;;;;;;;3.00;1.80;;;;;;;;;;5040833;28;20233;-38
2023/04/27 14:19:03;;;;;;;5.63;2.60;;;;;;;;;;5039240;28;20210;-39
2023/04/27 14:21:32;;;;;;;2.80;2.00;;;;;;;;;;5049031;28;20209;-34
2023/04/27 14:24:00;;;;;;;3.20;1.70;;;;;;;;;;5033081;28;20223;-39
2023/04/27 14:26:31;;;;;;;5.20;2.23;;;;;;;;;;5034508;28;20289;-38
2023/04/27 14:29:01;;;;;;;2.33;2.00;;;;;;;;;;5049913;28;20198;-35
2023/04/27 14:31:29;;;;;;;3.23;2.17;;;;;;;;;;5052882;28;20284;-40
2023/04/27 14:33:57;;;;;;;3.80;1.63;;;;;;;;;;5041734;28;20232;-36
2023/04/27 14:36:26;;;;;;;2.60;1.80;;;;;;;;;;5045031;28;20215;-34
2023/04/27 14:38:54;;;;;;;2.17;1.97;;;;;;;;;;5033041;28;20215;-34
2023/04/27 14:41:22;;;;;;;4.87;2.17;;;;;;;;;;5034241;28;20213;-38
2023/04/27 14:43:53;;;;;;;2.47;2.10;;;;;;;;;;5047406;28;20329;-37
2023/04/27 14:46:24;;;;;;;5.03;2.00;;;;;;;;;;5033010;28;20283;-42
2023/04/27 14:48:52;;;;;;;2.40;2.17;;;;;;;;;;5032827;28;20257;-36
2023/04/27 14:51:22;;;;;;;4.33;2.23;;;;;;;;;;5039082;28;20281;-38
2023/04/27 14:53:51;;;;;;;3.00;2.10;;;;;;;;;;5033904;28;20218;-37